createdAt,value
2022-08-20T00:00:44.059Z,18.78
2022-08-20T00:03:33.051Z,18.82
2022-08-20T00:06:04.359Z,18.70
2022-08-20T00:08:31.922Z,18.64
2022-08-20T00:10:59.886Z,18.59
2022-08-20T00:13:36.713Z,18.58
2022-08-20T00:16:05.286Z,18.48
2022-08-20T00:18:32.180Z,18.47
2022-08-20T00:21:01.156Z,18.39
2022-08-20T00:23:28.129Z,18.36
2022-08-20T00:25:54.978Z,18.31
2022-08-20T00:28:24.002Z,18.27
2022-08-20T00:30:50.864Z,18.23
2022-08-20T00:33:20.772Z,18.22
2022-08-20T00:35:51.924Z,18.20
2022-08-20T00:38:19.604Z,18.17
2022-08-20T00:40:50.166Z,18.15
2022-08-20T00:43:35.084Z,18.18
2022-08-20T00:46:06.690Z,18.10
2022-08-20T00:48:35.776Z,18.06
2022-08-20T00:51:08.477Z,18.03
2022-08-20T00:53:36.337Z,17.97
2022-08-20T00:56:04.731Z,17.97
2022-08-20T00:58:32.408Z,17.95
2022-08-20T01:00:59.846Z,17.91
2022-08-20T01:03:26.660Z,17.88
2022-08-20T01:05:53.567Z,17.87
2022-08-20T01:08:24.660Z,17.88
2022-08-20T01:10:53.922Z,17.84
2022-08-20T01:13:24.265Z,17.82
2022-08-20T01:15:54.838Z,17.77
2022-08-20T01:18:26.163Z,17.75
2022-08-20T01:20:57.940Z,17.69
2022-08-20T01:23:49.743Z,17.69
2022-08-20T01:26:22.354Z,17.62
2022-08-20T01:28:58.685Z,17.56
2022-08-20T01:31:30.523Z,17.55
2022-08-20T01:33:58.003Z,17.61
2022-08-20T01:36:46.776Z,17.47
2022-08-20T01:39:17.653Z,17.41
2022-08-20T01:42:09.754Z,17.44
2022-08-20T01:44:38.637Z,17.34
2022-08-20T01:47:18.077Z,17.34
2022-08-20T01:49:52.296Z,17.28
2022-08-20T01:53:00.496Z,17.32
2022-08-20T01:55:27.902Z,17.21
2022-08-20T01:57:55.304Z,17.21
2022-08-20T02:00:22.789Z,17.19
2022-08-20T02:02:50.514Z,17.18
2022-08-20T02:05:18.215Z,17.17
2022-08-20T02:07:45.316Z,17.15
2022-08-20T02:10:15.726Z,17.15
2022-08-20T02:12:42.597Z,17.15
2022-08-20T02:15:11.265Z,17.16
2022-08-20T02:17:39.141Z,17.14
2022-08-20T02:20:14.525Z,17.19
2022-08-20T02:22:53.077Z,17.17
2022-08-20T02:25:24.377Z,17.13
2022-08-20T02:27:52.934Z,17.14
2022-08-20T02:30:27.694Z,17.12
2022-08-20T02:32:56.765Z,17.09
2022-08-20T02:35:25.000Z,17.05
2022-08-20T02:37:52.834Z,17.00
2022-08-20T02:40:27.370Z,16.98
2022-08-20T02:42:59.640Z,16.93
2022-08-20T02:45:27.323Z,16.95
2022-08-20T02:47:56.716Z,16.91
2022-08-20T02:50:25.523Z,16.93
2022-08-20T02:52:53.495Z,16.97
2022-08-20T02:55:27.824Z,17.01
2022-08-20T02:58:00.157Z,17.03
2022-08-20T03:00:32.150Z,17.18
2022-08-20T03:03:10.496Z,17.30
2022-08-20T03:05:39.791Z,17.35
2022-08-20T03:08:08.486Z,17.32
2022-08-20T03:10:37.037Z,17.33
2022-08-20T03:13:05.033Z,17.33
2022-08-20T03:15:34.455Z,17.33
2022-08-20T03:18:01.505Z,17.45
2022-08-20T03:20:29.991Z,17.51
2022-08-20T03:22:58.531Z,17.49
2022-08-20T03:25:25.541Z,17.46
2022-08-20T03:27:54.004Z,17.46
2022-08-20T03:30:23.744Z,17.52
2022-08-20T03:32:51.019Z,17.54
2022-08-20T03:35:19.890Z,17.58
2022-08-20T03:37:48.460Z,17.55
2022-08-20T03:40:23.977Z,17.57
2022-08-20T03:42:52.636Z,17.52
2022-08-20T03:45:21.031Z,17.53
2022-08-20T03:47:49.628Z,17.62
2022-08-20T03:50:23.113Z,17.67
2022-08-20T03:52:54.753Z,17.70
2022-08-20T03:55:22.861Z,17.66
2022-08-20T03:57:53.154Z,17.70
2022-08-20T04:00:29.514Z,17.81
2022-08-20T04:02:57.237Z,17.93
2022-08-20T04:05:25.463Z,18.02
2022-08-20T04:07:56.537Z,18.07
2022-08-20T04:10:31.028Z,18.11
2022-08-20T04:12:57.886Z,18.16
2022-08-20T04:15:24.814Z,18.15
2022-08-20T04:17:53.532Z,18.19
2022-08-20T04:20:23.929Z,18.26
2022-08-20T04:22:59.467Z,18.24
2022-08-20T04:25:29.593Z,18.30
2022-08-20T04:27:58.520Z,18.35
2022-08-20T04:30:26.526Z,18.44
2022-08-20T04:32:54.400Z,18.49
2022-08-20T04:35:24.690Z,18.56
2022-08-20T04:38:03.414Z,18.64
2022-08-20T04:40:49.060Z,18.64
2022-08-20T04:43:16.110Z,18.67
2022-08-20T04:45:44.081Z,18.65
2022-08-20T04:48:14.896Z,18.57
2022-08-20T04:50:44.869Z,18.53
2022-08-20T04:53:14.219Z,18.47
2022-08-20T04:55:43.000Z,18.41
2022-08-20T04:58:22.787Z,18.45
2022-08-20T05:00:52.445Z,18.36
2022-08-20T05:03:19.927Z,18.37
2022-08-20T05:05:47.819Z,18.45
2022-08-20T05:08:18.802Z,18.55
2022-08-20T05:10:47.460Z,18.58
2022-08-20T05:13:14.330Z,18.60
2022-08-20T05:15:41.336Z,18.61
2022-08-20T05:18:08.978Z,18.67
2022-08-20T05:20:40.705Z,18.74
2022-08-20T05:23:10.738Z,18.82
2022-08-20T05:25:39.310Z,18.85
2022-08-20T05:28:17.869Z,18.93
2022-08-20T05:30:47.614Z,18.81
2022-08-20T05:33:18.938Z,18.75
2022-08-20T05:35:47.297Z,18.75
2022-08-20T05:38:18.733Z,18.81
2022-08-20T05:40:47.234Z,18.86
2022-08-20T05:43:14.986Z,18.91
2022-08-20T05:45:43.690Z,18.91
2022-08-20T05:48:14.126Z,18.93
2022-08-20T05:50:42.819Z,18.92
2022-08-20T05:53:09.744Z,18.89
2022-08-20T05:55:39.530Z,18.86
2022-08-20T05:58:14.146Z,18.87
2022-08-20T06:00:40.971Z,18.94
2022-08-20T06:03:26.510Z,18.98
2022-08-20T06:05:53.321Z,19.00
2022-08-20T06:08:20.590Z,19.05
2022-08-20T06:10:47.503Z,19.03
2022-08-20T06:13:14.370Z,19.10
2022-08-20T06:15:41.494Z,19.19
2022-08-20T06:18:10.309Z,19.20
2022-08-20T06:20:54.389Z,19.22
2022-08-20T06:23:21.364Z,19.22
2022-08-20T06:25:50.188Z,19.27
2022-08-20T06:28:17.785Z,19.36
2022-08-20T06:30:44.845Z,19.39
2022-08-20T06:33:12.251Z,19.39
2022-08-20T06:35:39.118Z,19.41
2022-08-20T06:38:06.551Z,19.43
2022-08-20T06:40:34.425Z,19.48
2022-08-20T06:43:02.015Z,19.58
2022-08-20T06:45:32.695Z,19.67
2022-08-20T06:48:02.155Z,19.60
2022-08-20T06:50:33.094Z,19.58
2022-08-20T06:53:00.425Z,19.53
2022-08-20T06:55:27.578Z,19.59
2022-08-20T06:57:59.506Z,19.76
2022-08-20T07:00:26.600Z,19.95
2022-08-20T07:02:53.501Z,19.99
2022-08-20T07:05:20.511Z,20.12
2022-08-20T07:07:49.596Z,20.18
2022-08-20T07:10:18.237Z,20.20
2022-08-20T07:12:46.894Z,20.21
2022-08-20T07:15:14.649Z,20.30
2022-08-20T07:17:42.104Z,20.32
2022-08-20T07:20:15.140Z,20.41
2022-08-20T07:22:43.405Z,20.43
2022-08-20T07:25:14.384Z,20.45
2022-08-20T07:27:42.841Z,20.45
2022-08-20T07:30:32.281Z,20.51
2022-08-20T07:33:19.565Z,20.49
2022-08-20T07:35:49.028Z,20.49
2022-08-20T07:38:22.058Z,20.49
2022-08-20T07:40:49.684Z,20.47
2022-08-20T07:43:16.550Z,20.44
2022-08-20T07:45:48.478Z,20.43
2022-08-20T07:48:31.268Z,20.51
2022-08-20T07:51:01.366Z,20.54
2022-08-20T07:53:31.257Z,20.58
2022-08-20T07:56:06.069Z,20.57
2022-08-20T07:58:35.849Z,20.44
2022-08-20T08:01:03.042Z,20.38
2022-08-20T08:03:39.873Z,20.44
2022-08-20T08:06:17.184Z,20.51
2022-08-20T08:09:05.121Z,20.60
2022-08-20T08:11:34.563Z,20.41
2022-08-20T08:14:02.639Z,20.28
2022-08-20T08:16:32.765Z,20.21
2022-08-20T08:19:02.114Z,20.15
2022-08-20T08:21:30.508Z,20.03
2022-08-20T08:23:58.334Z,19.99
2022-08-20T08:26:26.344Z,20.00
2022-08-20T08:28:53.187Z,19.99
2022-08-20T08:31:20.034Z,19.97
2022-08-20T08:33:46.896Z,19.94
2022-08-20T08:36:15.937Z,19.83
2022-08-20T08:38:44.825Z,19.74
2022-08-20T08:41:12.589Z,19.73
2022-08-20T08:43:39.732Z,19.79
2022-08-20T08:46:10.675Z,19.86
2022-08-20T08:48:45.518Z,19.87
2022-08-20T08:51:16.364Z,19.88
2022-08-20T08:53:53.528Z,19.98
2022-08-20T08:56:27.082Z,19.98
2022-08-20T08:58:55.704Z,19.98
2022-08-20T09:01:54.279Z,20.03
2022-08-20T09:04:16.265Z,20.06
2022-08-20T09:06:52.314Z,20.02
2022-08-20T09:09:27.789Z,20.05
2022-08-20T09:12:02.101Z,19.97
2022-08-20T09:14:29.343Z,19.89
2022-08-20T09:16:56.221Z,19.83
2022-08-20T09:19:23.298Z,19.77
2022-08-20T09:21:50.188Z,19.72
2022-08-20T09:24:17.153Z,19.64
2022-08-20T09:26:44.089Z,19.56
2022-08-20T09:29:11.159Z,19.47
2022-08-20T09:31:38.936Z,19.39
2022-08-20T09:34:05.888Z,19.31
2022-08-20T09:36:33.362Z,19.26
2022-08-20T09:39:02.749Z,19.32
2022-08-20T09:41:31.144Z,19.31
2022-08-20T09:44:00.669Z,19.31
2022-08-20T09:46:27.726Z,19.26
2022-08-20T09:48:55.316Z,19.27
2022-08-20T09:51:22.925Z,19.21
2022-08-20T09:53:50.290Z,19.15
2022-08-20T09:56:17.691Z,19.08
2022-08-20T09:58:51.367Z,19.15
2022-08-20T10:01:20.400Z,19.05
2022-08-20T10:03:49.398Z,19.02
2022-08-20T10:06:19.718Z,18.98
2022-08-20T10:08:47.323Z,19.00
2022-08-20T10:11:14.157Z,19.02
2022-08-20T10:13:41.282Z,19.01
2022-08-20T10:16:08.188Z,19.08
2022-08-20T10:18:36.381Z,19.06
2022-08-20T10:21:03.502Z,19.04
2022-08-20T10:23:30.437Z,19.08
2022-08-20T10:25:57.269Z,19.09
2022-08-20T10:28:24.129Z,19.14
2022-08-20T10:30:50.963Z,19.17
2022-08-20T10:33:17.949Z,19.17
2022-08-20T10:35:44.799Z,19.14
2022-08-20T10:38:11.637Z,19.14
2022-08-20T10:40:38.704Z,19.14
2022-08-20T10:43:05.601Z,19.09
2022-08-20T10:45:32.455Z,19.08
2022-08-20T10:48:00.799Z,19.10
2022-08-20T10:50:30.317Z,19.12
2022-08-20T10:52:58.117Z,19.16
2022-08-20T10:55:25.188Z,19.18
2022-08-20T10:57:52.137Z,19.22
2022-08-20T11:00:19.454Z,19.30
2022-08-20T11:02:46.754Z,19.31
2022-08-20T11:05:13.577Z,19.35
2022-08-20T11:07:55.314Z,19.40
2022-08-20T11:10:28.325Z,19.53
2022-08-20T11:12:55.332Z,19.53
2022-08-20T11:15:22.324Z,19.62
2022-08-20T11:17:49.443Z,19.71
2022-08-20T11:20:18.339Z,19.81
2022-08-20T11:22:45.627Z,19.89
2022-08-20T11:25:12.844Z,20.00
2022-08-20T11:27:42.735Z,20.13
2022-08-20T11:30:13.277Z,20.26
2022-08-20T11:32:40.368Z,20.29
2022-08-20T11:35:38.471Z,20.38
2022-08-20T11:37:56.219Z,20.46
2022-08-20T11:40:24.051Z,20.49
2022-08-20T11:43:13.226Z,20.53
2022-08-20T11:45:38.014Z,20.65
2022-08-20T11:48:05.619Z,20.74
2022-08-20T11:50:32.557Z,20.83
2022-08-20T11:53:00.998Z,20.88
2022-08-20T11:55:30.511Z,20.93
2022-08-20T11:57:59.883Z,20.90
2022-08-20T12:00:32.293Z,20.90
2022-08-20T12:03:05.458Z,20.93
2022-08-20T12:05:34.819Z,20.79
2022-08-20T12:08:02.315Z,20.79
2022-08-20T12:10:30.574Z,20.84
2022-08-20T12:13:00.200Z,20.87
2022-08-20T12:15:29.680Z,20.93
2022-08-20T12:17:56.944Z,20.98
2022-08-20T12:20:24.432Z,21.02
2022-08-20T12:22:52.788Z,21.11
2022-08-20T12:25:20.292Z,21.25
2022-08-20T12:27:47.177Z,21.38
2022-08-20T12:30:17.353Z,21.56
2022-08-20T12:32:44.835Z,21.66
2022-08-20T12:35:13.623Z,21.74
2022-08-20T12:37:41.765Z,21.74
2022-08-20T12:40:12.343Z,21.73
2022-08-20T12:42:39.297Z,21.55
2022-08-20T12:45:07.339Z,21.46
2022-08-20T12:47:39.975Z,21.47
2022-08-20T12:50:10.189Z,21.37
2022-08-20T12:52:37.840Z,21.28
2022-08-20T12:55:07.077Z,21.30
2022-08-20T12:57:39.271Z,21.31
2022-08-20T13:00:22.658Z,21.35
2022-08-20T13:02:53.384Z,21.20
2022-08-20T13:05:20.782Z,21.25
2022-08-20T13:07:48.682Z,21.31
2022-08-20T13:10:35.635Z,21.44
2022-08-20T13:13:03.077Z,21.36
2022-08-20T13:15:32.145Z,21.37
2022-08-20T13:18:02.175Z,21.40
2022-08-20T13:20:34.076Z,21.43
2022-08-20T13:23:03.416Z,21.48
2022-08-20T13:25:30.368Z,21.58
2022-08-20T13:27:59.779Z,21.62
2022-08-20T13:30:26.992Z,21.66
2022-08-20T13:32:54.016Z,21.70
2022-08-20T13:35:21.748Z,21.70
2022-08-20T13:37:49.811Z,21.70
2022-08-20T13:40:17.427Z,21.68
2022-08-20T13:42:44.633Z,21.67
2022-08-20T13:45:11.674Z,21.68
2022-08-20T13:47:40.217Z,21.66
2022-08-20T13:50:16.598Z,21.70
2022-08-20T13:52:44.275Z,21.57
2022-08-20T13:55:16.803Z,21.56
2022-08-20T13:57:45.087Z,21.48
2022-08-20T14:00:17.026Z,21.47
2022-08-20T14:02:44.398Z,21.39
2022-08-20T14:05:12.086Z,21.35
2022-08-20T14:07:47.604Z,21.34
2022-08-20T14:10:22.456Z,21.33
2022-08-20T14:12:49.269Z,21.26
2022-08-20T14:15:16.135Z,21.21
2022-08-20T14:17:49.463Z,21.21
2022-08-20T14:20:19.812Z,21.15
2022-08-20T14:22:46.674Z,21.16
2022-08-20T14:25:15.703Z,21.15
2022-08-20T14:27:42.685Z,21.13
2022-08-20T14:30:15.028Z,21.21
2022-08-20T14:32:42.707Z,21.22
2022-08-20T14:35:10.133Z,21.26
2022-08-20T14:37:42.957Z,21.33
2022-08-20T14:40:14.675Z,21.32
2022-08-20T14:42:41.660Z,21.42
2022-08-20T14:45:12.183Z,21.32
2022-08-20T14:47:42.207Z,21.34
2022-08-20T14:50:14.321Z,21.35
2022-08-20T14:52:41.734Z,21.32
2022-08-20T14:55:12.575Z,21.34
2022-08-20T14:57:40.032Z,21.32
2022-08-20T15:00:10.313Z,21.34
2022-08-20T15:02:38.626Z,21.38
2022-08-20T15:05:07.283Z,21.40
2022-08-20T15:07:39.084Z,21.39
2022-08-20T15:10:13.355Z,21.46
2022-08-20T15:12:43.176Z,21.40
2022-08-20T15:15:13.445Z,21.40
2022-08-20T15:17:45.742Z,21.42
2022-08-20T15:20:20.828Z,21.41
2022-08-20T15:22:48.764Z,21.41
2022-08-20T15:25:20.319Z,21.45
2022-08-20T15:27:48.273Z,21.42
2022-08-20T15:30:21.181Z,21.46
2022-08-20T15:32:52.739Z,21.43
2022-08-20T15:35:23.709Z,21.46
2022-08-20T15:37:51.411Z,21.48
2022-08-20T15:40:27.875Z,21.48
2022-08-20T15:42:56.878Z,21.48
2022-08-20T15:45:24.487Z,21.50
2022-08-20T15:48:14.139Z,21.53
2022-08-20T15:51:25.877Z,21.60
2022-08-20T15:53:55.368Z,21.52
2022-08-20T15:56:38.547Z,21.53
2022-08-20T15:59:21.680Z,21.51
2022-08-20T16:02:16.278Z,21.52
2022-08-20T16:04:57.598Z,21.46
2022-08-20T16:07:46.708Z,21.42
2022-08-20T16:10:20.839Z,21.30
2022-08-20T16:12:52.271Z,21.29
2022-08-20T16:15:25.273Z,21.26
2022-08-20T16:18:13.183Z,21.27
2022-08-20T16:20:43.716Z,21.18
2022-08-20T16:23:19.909Z,21.16
2022-08-20T16:26:01.832Z,21.09
2022-08-20T16:28:32.557Z,21.18
2022-08-20T16:31:05.237Z,21.06
2022-08-20T16:33:39.241Z,21.04
2022-08-20T16:36:14.889Z,21.04
2022-08-20T16:39:08.678Z,21.07
2022-08-20T16:41:43.672Z,21.01
2022-08-20T16:44:20.721Z,20.96
2022-08-20T16:46:58.006Z,20.95
2022-08-20T16:49:28.987Z,20.88
2022-08-20T16:51:55.861Z,20.81
2022-08-20T16:54:29.706Z,20.76
2022-08-20T16:57:05.130Z,20.77
2022-08-20T16:59:33.026Z,20.70
2022-08-20T17:02:10.643Z,20.72
2022-08-20T17:04:50.490Z,20.70
2022-08-20T17:07:43.432Z,20.69
2022-08-20T17:10:20.616Z,20.65
2022-08-20T17:12:53.354Z,20.64
2022-08-20T17:15:24.241Z,20.62
2022-08-20T17:17:51.675Z,20.62
2022-08-20T17:20:20.133Z,20.61
2022-08-20T17:23:11.134Z,20.68
2022-08-20T17:25:38.549Z,20.60
2022-08-20T17:28:19.437Z,20.65
2022-08-20T17:30:47.426Z,20.60
2022-08-20T17:33:26.316Z,20.64
2022-08-20T17:35:59.968Z,20.62
2022-08-20T17:38:46.947Z,20.59
2022-08-20T17:41:23.576Z,20.63
2022-08-20T17:44:04.035Z,20.65
2022-08-20T17:46:35.638Z,20.63
2022-08-20T17:49:07.464Z,20.63
2022-08-20T17:51:37.781Z,20.69
2022-08-20T17:54:32.945Z,20.66
2022-08-20T17:57:04.817Z,20.61
2022-08-20T18:00:01.272Z,20.64
2022-08-20T18:02:31.214Z,20.58
2022-08-20T18:04:58.093Z,20.57
2022-08-20T18:07:27.618Z,20.54
2022-08-20T18:10:04.695Z,20.58
2022-08-20T18:12:49.229Z,20.58
2022-08-20T18:15:31.459Z,20.56
2022-08-20T18:18:26.020Z,20.57
2022-08-20T18:21:14.573Z,20.55
2022-08-20T18:23:58.355Z,20.53
2022-08-20T18:26:52.172Z,20.52
2022-08-20T18:29:29.466Z,20.45
2022-08-20T18:32:00.351Z,20.41
2022-08-20T18:34:30.155Z,20.40
2022-08-20T18:37:20.134Z,20.35
2022-08-20T18:39:49.569Z,20.33
2022-08-20T18:42:24.530Z,20.35
2022-08-20T18:44:54.185Z,20.31
2022-08-20T18:47:27.850Z,20.29
2022-08-20T18:50:20.426Z,20.33
2022-08-20T18:52:50.594Z,20.21
2022-08-20T18:55:29.750Z,20.23
2022-08-20T18:58:02.992Z,20.18
2022-08-20T19:00:40.800Z,20.17
2022-08-20T19:03:07.581Z,20.11
2022-08-20T19:05:46.321Z,20.14
2022-08-20T19:08:21.359Z,20.10
2022-08-20T19:11:11.071Z,20.10
2022-08-20T19:14:11.872Z,20.06
2022-08-20T19:16:43.634Z,19.97
2022-08-20T19:19:17.401Z,19.95
2022-08-20T19:21:44.583Z,19.86
2022-08-20T19:24:15.998Z,19.87
2022-08-20T19:26:52.422Z,19.86
2022-08-20T19:29:26.827Z,19.80
2022-08-20T19:32:05.864Z,19.80
2022-08-20T19:34:33.410Z,19.71
2022-08-20T19:37:34.781Z,19.72
2022-08-20T19:40:01.410Z,19.62
2022-08-20T19:42:33.407Z,19.60
2022-08-20T19:45:07.638Z,19.55
2022-08-20T19:47:38.715Z,19.52
2022-08-20T19:50:27.832Z,19.53
2022-08-20T19:53:04.998Z,19.39
2022-08-20T19:55:37.260Z,19.36
2022-08-20T19:58:18.839Z,19.36
2022-08-20T20:00:55.275Z,19.28
2022-08-20T20:03:29.261Z,19.30
2022-08-20T20:05:59.427Z,19.26
2022-08-20T20:08:39.076Z,19.25
2022-08-20T20:11:06.561Z,19.18
2022-08-20T20:13:37.729Z,19.17
2022-08-20T20:16:07.424Z,19.16
2022-08-20T20:18:39.908Z,19.17
2022-08-20T20:21:14.902Z,19.16
2022-08-20T20:23:46.920Z,19.12
2022-08-20T20:26:19.983Z,19.14
2022-08-20T20:28:50.237Z,19.10
2022-08-20T20:31:51.289Z,19.15
2022-08-20T20:34:25.000Z,19.07
2022-08-20T20:37:03.769Z,19.09
2022-08-20T20:39:36.609Z,19.04
2022-08-20T20:42:07.182Z,19.02
2022-08-20T20:44:43.549Z,19.05
2022-08-20T20:47:35.941Z,19.07
2022-08-20T20:50:10.668Z,19.02
2022-08-20T20:52:49.506Z,19.03
2022-08-20T20:55:29.954Z,19.04
2022-08-20T20:57:58.182Z,18.97
2022-08-20T21:00:28.733Z,18.99
2022-08-20T21:02:56.522Z,18.98
2022-08-20T21:05:26.438Z,18.99
2022-08-20T21:07:53.317Z,18.97
2022-08-20T21:10:23.202Z,18.97
2022-08-20T21:12:53.154Z,18.95
2022-08-20T21:15:26.116Z,18.94
2022-08-20T21:17:53.638Z,18.92
2022-08-20T21:20:22.476Z,18.93
2022-08-20T21:22:49.482Z,18.93
2022-08-20T21:25:18.766Z,18.90
2022-08-20T21:27:48.220Z,18.92
2022-08-20T21:30:16.904Z,18.89
2022-08-20T21:32:43.866Z,18.87
2022-08-20T21:35:11.359Z,18.85
2022-08-20T21:37:39.120Z,18.82
2022-08-20T21:40:09.042Z,18.79
2022-08-20T21:42:38.105Z,18.76
2022-08-20T21:45:07.775Z,18.76
2022-08-20T21:47:35.159Z,18.74
2022-08-20T21:50:02.262Z,18.72
2022-08-20T21:52:30.616Z,18.70
2022-08-20T21:54:57.598Z,18.71
2022-08-20T21:57:28.846Z,18.72
2022-08-20T21:59:57.295Z,18.69
2022-08-20T22:02:25.364Z,18.68
2022-08-20T22:04:53.953Z,18.67
2022-08-20T22:07:21.640Z,18.66
2022-08-20T22:09:48.611Z,18.64
2022-08-20T22:12:22.139Z,18.66
2022-08-20T22:14:49.490Z,18.63
2022-08-20T22:17:16.422Z,18.63
2022-08-20T22:19:43.581Z,18.62
2022-08-20T22:22:13.153Z,18.60
2022-08-20T22:24:40.072Z,18.58
2022-08-20T22:27:07.743Z,18.56
2022-08-20T22:29:34.731Z,18.53
2022-08-20T22:32:01.843Z,18.49
2022-08-20T22:34:32.330Z,18.50
2022-08-20T22:37:00.786Z,18.46
2022-08-20T22:39:27.792Z,18.45
2022-08-20T22:41:54.699Z,18.43
2022-08-20T22:44:21.611Z,18.42
2022-08-20T22:46:52.638Z,18.39
2022-08-20T22:49:26.949Z,18.37
2022-08-20T22:51:54.081Z,18.37
2022-08-20T22:54:24.997Z,18.35
2022-08-20T22:56:53.781Z,18.32
2022-08-20T22:59:21.826Z,18.28
2022-08-20T23:01:50.197Z,18.25
2022-08-20T23:04:24.961Z,18.26
2022-08-20T23:06:52.241Z,18.25
2022-08-20T23:09:20.982Z,18.24
2022-08-20T23:11:48.468Z,18.27
2022-08-20T23:14:15.505Z,18.26
2022-08-20T23:16:45.340Z,18.25
2022-08-20T23:19:21.635Z,18.25
2022-08-20T23:21:49.668Z,18.17
2022-08-20T23:24:16.596Z,18.16
2022-08-20T23:26:44.724Z,18.15
2022-08-20T23:29:22.611Z,18.16
2022-08-20T23:31:55.472Z,18.13
2022-08-20T23:34:22.733Z,18.08
2022-08-20T23:36:50.315Z,18.06
2022-08-20T23:39:17.139Z,18.03
2022-08-20T23:41:47.921Z,18.00
2022-08-20T23:44:25.068Z,17.96
2022-08-20T23:47:00.735Z,17.96
2022-08-20T23:49:29.359Z,17.88
2022-08-20T23:51:57.826Z,17.86
2022-08-20T23:54:24.751Z,17.84
2022-08-20T23:56:51.754Z,17.82
2022-08-20T23:59:24.280Z,17.79
